sensor_id;sensor_type;location;lat;lon;timestamp;pressure;altitude;pressure_sealevel;temperature;humidity
64876;BME280;51369;49.862;9.908;2023-05-23T00:00:57;97979.91;;;19.74;66.27
64876;BME280;51369;49.862;9.908;2023-05-23T00:03:24;97988.53;;;19.69;66.09
64876;BME280;51369;49.862;9.908;2023-05-23T00:05:50;97982.31;;;19.67;66.76
64876;BME280;51369;49.862;9.908;2023-05-23T00:08:15;97987.78;;;19.67;66.24
64876;BME280;51369;49.862;9.908;2023-05-23T00:10:41;97991.38;;;19.68;66.14
64876;BME280;51369;49.862;9.908;2023-05-23T00:13:06;97994.88;;;19.70;65.51
64876;BME280;51369;49.862;9.908;2023-05-23T00:15:34;97994.72;;;19.71;65.53
64876;BME280;51369;49.862;9.908;2023-05-23T00:18:02;97993.88;;;19.71;64.06
64876;BME280;51369;49.862;9.908;2023-05-23T00:20:27;98002.81;;;19.73;64.83
64876;BME280;51369;49.862;9.908;2023-05-23T00:22:53;98005.69;;;19.71;64.14
64876;BME280;51369;49.862;9.908;2023-05-23T00:25:23;98008.69;;;19.68;65.25
64876;BME280;51369;49.862;9.908;2023-05-23T00:27:50;98014.31;;;19.67;65.11
64876;BME280;51369;49.862;9.908;2023-05-23T00:30:15;98009.94;;;19.64;65.38
64876;BME280;51369;49.862;9.908;2023-05-23T00:32:41;98007.34;;;19.63;65.23
64876;BME280;51369;49.862;9.908;2023-05-23T00:35:07;98011.09;;;19.62;65.74
64876;BME280;51369;49.862;9.908;2023-05-23T00:37:33;98016.56;;;19.62;65.68
64876;BME280;51369;49.862;9.908;2023-05-23T00:39:59;98007.59;;;19.60;65.97
64876;BME280;51369;49.862;9.908;2023-05-23T00:42:24;98013.09;;;19.60;65.81
64876;BME280;51369;49.862;9.908;2023-05-23T00:44:51;98012.22;;;19.59;66.50
64876;BME280;51369;49.862;9.908;2023-05-23T00:47:17;98010.47;;;19.58;67.22
64876;BME280;51369;49.862;9.908;2023-05-23T00:49:43;98014.47;;;19.54;67.37
64876;BME280;51369;49.862;9.908;2023-05-23T00:52:09;98004.66;;;19.52;67.65
64876;BME280;51369;49.862;9.908;2023-05-23T00:54:35;98011.22;;;19.49;67.05
64876;BME280;51369;49.862;9.908;2023-05-23T00:57:02;98010.34;;;19.48;67.15
64876;BME280;51369;49.862;9.908;2023-05-23T00:59:28;98004.00;;;19.48;67.10
64876;BME280;51369;49.862;9.908;2023-05-23T01:01:55;98013.84;;;19.50;67.03
64876;BME280;51369;49.862;9.908;2023-05-23T01:04:21;98021.19;;;19.50;67.23
64876;BME280;51369;49.862;9.908;2023-05-23T01:06:55;98018.56;;;19.48;67.48
64876;BME280;51369;49.862;9.908;2023-05-23T01:09:22;98025.78;;;19.49;67.52
64876;BME280;51369;49.862;9.908;2023-05-23T01:15:11;98033.78;;;19.53;66.98
64876;BME280;51369;49.862;9.908;2023-05-23T01:17:47;98032.13;;;19.50;66.92
64876;BME280;51369;49.862;9.908;2023-05-23T01:20:21;98031.25;;;19.49;66.11
64876;BME280;51369;49.862;9.908;2023-05-23T01:28:20;98032.78;;;19.42;65.08
64876;BME280;51369;49.862;9.908;2023-05-23T01:30:51;98034.78;;;19.40;65.25
64876;BME280;51369;49.862;9.908;2023-05-23T01:33:17;98031.28;;;19.38;64.23
64876;BME280;51369;49.862;9.908;2023-05-23T01:35:44;98027.81;;;19.36;65.04
64876;BME280;51369;49.862;9.908;2023-05-23T01:38:10;98031.53;;;19.35;65.90
64876;BME280;51369;49.862;9.908;2023-05-23T01:40:38;98028.06;;;19.33;66.94
64876;BME280;51369;49.862;9.908;2023-05-23T01:43:04;98037.28;;;19.32;66.49
64876;BME280;51369;49.862;9.908;2023-05-23T01:45:29;98032.81;;;19.31;66.78
64876;BME280;51369;49.862;9.908;2023-05-23T01:47:56;98041.00;;;19.31;66.12
64876;BME280;51369;49.862;9.908;2023-05-23T01:50:22;98040.16;;;19.31;66.57
64876;BME280;51369;49.862;9.908;2023-05-23T01:52:49;98045.75;;;19.29;66.68
64876;BME280;51369;49.862;9.908;2023-05-23T01:55:17;98041.41;;;19.27;66.61
64876;BME280;51369;49.862;9.908;2023-05-23T01:57:49;98050.47;;;19.27;66.86
64876;BME280;51369;49.862;9.908;2023-05-23T02:00:15;98052.34;;;19.27;66.47
64876;BME280;51369;49.862;9.908;2023-05-23T02:02:45;98054.34;;;19.25;66.44
64876;BME280;51369;49.862;9.908;2023-05-23T02:05:10;98055.34;;;19.24;67.23
64876;BME280;51369;49.862;9.908;2023-05-23T02:07:36;98053.59;;;19.23;66.10
64876;BME280;51369;49.862;9.908;2023-05-23T02:10:02;98053.72;;;19.21;65.42
64876;BME280;51369;49.862;9.908;2023-05-23T02:12:28;98055.72;;;19.19;65.87
64876;BME280;51369;49.862;9.908;2023-05-23T02:14:54;98056.84;;;19.16;65.60
64876;BME280;51369;49.862;9.908;2023-05-23T02:17:19;98049.75;;;19.14;64.22
64876;BME280;51369;49.862;9.908;2023-05-23T02:19:47;98054.34;;;19.13;65.09
64876;BME280;51369;49.862;9.908;2023-05-23T02:22:12;98052.63;;;19.12;64.66
64876;BME280;51369;49.862;9.908;2023-05-23T02:24:38;98053.75;;;19.10;62.42
64876;BME280;51369;49.862;9.908;2023-05-23T02:27:04;98051.75;;;19.12;63.68
64876;BME280;51369;49.862;9.908;2023-05-23T02:29:29;98058.09;;;19.12;64.58
64876;BME280;51369;49.862;9.908;2023-05-23T02:31:55;98057.22;;;19.12;65.34
64876;BME280;51369;49.862;9.908;2023-05-23T02:34:20;98050.88;;;19.11;63.84
64876;BME280;51369;49.862;9.908;2023-05-23T02:36:46;98053.75;;;19.10;61.65
64876;BME280;51369;49.862;9.908;2023-05-23T02:39:11;98060.81;;;19.12;64.35
64876;BME280;51369;49.862;9.908;2023-05-23T02:41:37;98069.91;;;19.13;65.41
64876;BME280;51369;49.862;9.908;2023-05-23T02:44:04;98059.97;;;19.12;64.40
64876;BME280;51369;49.862;9.908;2023-05-23T02:46:30;98068.03;;;19.13;65.21
64876;BME280;51369;49.862;9.908;2023-05-23T02:48:55;98068.16;;;19.12;65.37
64876;BME280;51369;49.862;9.908;2023-05-23T02:51:21;98066.44;;;19.11;64.10
64876;BME280;51369;49.862;9.908;2023-05-23T02:53:46;98071.03;;;19.10;64.45
64876;BME280;51369;49.862;9.908;2023-05-23T02:56:12;98063.81;;;19.09;62.91
64876;BME280;51369;49.862;9.908;2023-05-23T02:58:38;98061.22;;;19.08;62.64
64876;BME280;51369;49.862;9.908;2023-05-23T03:01:04;98069.69;;;19.05;61.59
64876;BME280;51369;49.862;9.908;2023-05-23T03:03:30;98069.81;;;19.03;62.09
64876;BME280;51369;49.862;9.908;2023-05-23T03:05:56;98070.06;;;19.00;60.90
64876;BME280;51369;49.862;9.908;2023-05-23T03:08:23;98071.94;;;19.00;62.90
64876;BME280;51369;49.862;9.908;2023-05-23T03:10:49;98078.53;;;18.97;62.43
64876;BME280;51369;49.862;9.908;2023-05-23T03:13:15;98071.44;;;18.95;62.81
64876;BME280;51369;49.862;9.908;2023-05-23T03:15:41;98069.81;;;18.92;62.81
64876;BME280;51369;49.862;9.908;2023-05-23T03:18:06;98073.69;;;18.90;62.67
64876;BME280;51369;49.862;9.908;2023-05-23T03:20:31;98080.28;;;18.87;63.18
64876;BME280;51369;49.862;9.908;2023-05-23T03:22:57;98081.41;;;18.84;64.54
64876;BME280;51369;49.862;9.908;2023-05-23T03:25:22;98085.25;;;18.82;64.13
64876;BME280;51369;49.862;9.908;2023-05-23T03:27:48;98089.09;;;18.79;64.39
64876;BME280;51369;49.862;9.908;2023-05-23T03:30:13;98089.34;;;18.76;65.40
64876;BME280;51369;49.862;9.908;2023-05-23T03:32:39;98093.31;;;18.72;64.81
64876;BME280;51369;49.862;9.908;2023-05-23T03:35:04;98086.34;;;18.68;64.84
64876;BME280;51369;49.862;9.908;2023-05-23T03:37:30;98090.22;;;18.66;64.77
64876;BME280;51369;49.862;9.908;2023-05-23T03:39:56;98097.78;;;18.62;65.27
64876;BME280;51369;49.862;9.908;2023-05-23T03:42:22;98101.72;;;18.58;66.21
64876;BME280;51369;49.862;9.908;2023-05-23T03:44:47;98098.34;;;18.54;66.02
64876;BME280;51369;49.862;9.908;2023-05-23T03:47:12;98104.06;;;18.51;67.04
64876;BME280;51369;49.862;9.908;2023-05-23T03:49:41;98104.44;;;18.47;66.58
64876;BME280;51369;49.862;9.908;2023-05-23T03:52:06;98109.28;;;18.43;66.97
64876;BME280;51369;49.862;9.908;2023-05-23T03:54:32;98103.06;;;18.41;66.57
64876;BME280;51369;49.862;9.908;2023-05-23T03:56:58;98107.03;;;18.37;66.33
64876;BME280;51369;49.862;9.908;2023-05-23T03:59:23;98099.06;;;18.34;67.42
64876;BME280;51369;49.862;9.908;2023-05-23T04:01:48;98104.66;;;18.33;68.04
64876;BME280;51369;49.862;9.908;2023-05-23T04:04:14;98111.09;;;18.32;68.84
64876;BME280;51369;49.862;9.908;2023-05-23T04:06:41;98112.09;;;18.31;68.55
64876;BME280;51369;49.862;9.908;2023-05-23T04:09:07;98107.63;;;18.30;67.64
64876;BME280;51369;49.862;9.908;2023-05-23T04:11:37;98099.44;;;18.30;68.49
64876;BME280;51369;49.862;9.908;2023-05-23T04:14:02;98101.91;;;18.33;68.96
64876;BME280;51369;49.862;9.908;2023-05-23T04:16:28;98098.19;;;18.34;69.17
64876;BME280;51369;49.862;9.908;2023-05-23T04:18:58;98110.88;;;18.35;68.90
64876;BME280;51369;49.862;9.908;2023-05-23T04:21:24;98105.53;;;18.33;69.19
64876;BME280;51369;49.862;9.908;2023-05-23T04:24:00;98113.72;;;18.33;69.44
64876;BME280;51369;49.862;9.908;2023-05-23T04:26:26;98112.84;;;18.33;69.53
64876;BME280;51369;49.862;9.908;2023-05-23T04:28:52;98103.78;;;18.32;70.03
64876;BME280;51369;49.862;9.908;2023-05-23T04:31:19;98118.31;;;18.33;69.48
64876;BME280;51369;49.862;9.908;2023-05-23T04:33:47;98119.31;;;18.32;69.10
64876;BME280;51369;49.862;9.908;2023-05-23T04:36:13;98114.84;;;18.31;68.55
64876;BME280;51369;49.862;9.908;2023-05-23T04:38:42;98119.53;;;18.29;67.37
64876;BME280;51369;49.862;9.908;2023-05-23T04:41:08;98123.28;;;18.28;67.65
64876;BME280;51369;49.862;9.908;2023-05-23T04:43:53;98118.03;;;18.25;68.20
64876;BME280;51369;49.862;9.908;2023-05-23T04:46:27;98117.28;;;18.23;68.22
64876;BME280;51369;49.862;9.908;2023-05-23T04:49:09;98121.78;;;18.24;69.32
64876;BME280;51369;49.862;9.908;2023-05-23T04:51:35;98131.94;;;18.21;68.49
64876;BME280;51369;49.862;9.908;2023-05-23T04:54:11;98123.97;;;18.18;65.93
64876;BME280;51369;49.862;9.908;2023-05-23T04:56:36;98128.34;;;18.21;68.42
64876;BME280;51369;49.862;9.908;2023-05-23T04:59:02;98127.34;;;18.22;68.46
64876;BME280;51369;49.862;9.908;2023-05-23T05:01:28;98133.69;;;18.23;66.65
64876;BME280;51369;49.862;9.908;2023-05-23T05:03:53;98128.97;;;18.25;67.59
64876;BME280;51369;49.862;9.908;2023-05-23T05:06:19;98123.38;;;18.26;66.73
64876;BME280;51369;49.862;9.908;2023-05-23T05:08:46;98132.34;;;18.28;67.35
64876;BME280;51369;49.862;9.908;2023-05-23T05:11:11;98134.97;;;18.30;66.00
64876;BME280;51369;49.862;9.908;2023-05-23T05:13:37;98131.97;;;18.33;65.60
64876;BME280;51369;49.862;9.908;2023-05-23T05:16:03;98132.84;;;18.33;63.46
64876;BME280;51369;49.862;9.908;2023-05-23T05:18:29;98140.69;;;18.38;66.77
64876;BME280;51369;49.862;9.908;2023-05-23T05:20:56;98143.19;;;18.41;65.06
64876;BME280;51369;49.862;9.908;2023-05-23T05:23:25;98144.69;;;18.45;65.14
64876;BME280;51369;49.862;9.908;2023-05-23T05:25:53;98147.94;;;18.50;64.67
64876;BME280;51369;49.862;9.908;2023-05-23T05:28:19;98155.66;;;18.56;63.42
64876;BME280;51369;49.862;9.908;2023-05-23T05:30:49;98158.56;;;18.66;64.66
64876;BME280;51369;49.862;9.908;2023-05-23T05:33:20;98158.97;;;18.72;61.42
64876;BME280;51369;49.862;9.908;2023-05-23T05:35:49;98161.72;;;18.83;63.35
64876;BME280;51369;49.862;9.908;2023-05-23T05:38:18;98166.69;;;18.90;63.42
64876;BME280;51369;49.862;9.908;2023-05-23T05:40:44;98164.47;;;18.95;60.02
64876;BME280;51369;49.862;9.908;2023-05-23T05:43:10;98166.59;;;19.02;61.09
64876;BME280;51369;49.862;9.908;2023-05-23T05:45:36;98165.06;;;19.09;61.43
64876;BME280;51369;49.862;9.908;2023-05-23T05:48:02;98154.38;;;19.17;63.59
64876;BME280;51369;49.862;9.908;2023-05-23T05:50:28;98173.03;;;19.24;62.89
64876;BME280;51369;49.862;9.908;2023-05-23T05:52:53;98166.06;;;19.31;64.16
64876;BME280;51369;49.862;9.908;2023-05-23T05:55:19;98171.03;;;19.37;62.86
64876;BME280;51369;49.862;9.908;2023-05-23T05:57:49;98184.22;;;19.43;63.44
64876;BME280;51369;49.862;9.908;2023-05-23T06:00:15;98180.38;;;19.45;63.13
64876;BME280;51369;49.862;9.908;2023-05-23T06:02:50;98181.00;;;19.49;63.00
64876;BME280;51369;49.862;9.908;2023-05-23T06:05:22;98180.00;;;19.50;63.52
64876;BME280;51369;49.862;9.908;2023-05-23T06:07:49;98184.47;;;19.51;63.06
64876;BME280;51369;49.862;9.908;2023-05-23T06:10:14;98192.69;;;19.51;62.16
64876;BME280;51369;49.862;9.908;2023-05-23T06:12:41;98191.81;;;19.50;61.75
64876;BME280;51369;49.862;9.908;2023-05-23T06:15:07;98194.81;;;19.47;62.14
64876;BME280;51369;49.862;9.908;2023-05-23T06:17:35;98202.41;;;19.44;61.73
64876;BME280;51369;49.862;9.908;2023-05-23T06:20:02;98202.53;;;19.42;61.67
64876;BME280;51369;49.862;9.908;2023-05-23T06:22:29;98208.13;;;19.41;63.08
64876;BME280;51369;49.862;9.908;2023-05-23T06:24:55;98203.63;;;19.40;63.56
64876;BME280;51369;49.862;9.908;2023-05-23T06:27:22;98213.72;;;19.39;63.40
64876;BME280;51369;49.862;9.908;2023-05-23T06:29:48;98213.72;;;19.39;62.63
64876;BME280;51369;49.862;9.908;2023-05-23T06:32:13;98220.06;;;19.40;61.24
64876;BME280;51369;49.862;9.908;2023-05-23T06:34:38;98205.25;;;19.42;63.04
64876;BME280;51369;49.862;9.908;2023-05-23T06:37:05;98209.00;;;19.41;61.93
64876;BME280;51369;49.862;9.908;2023-05-23T06:39:30;98218.06;;;19.42;60.54
64876;BME280;51369;49.862;9.908;2023-05-23T06:41:55;98214.72;;;19.38;60.24
64876;BME280;51369;49.862;9.908;2023-05-23T06:44:21;98218.44;;;19.37;61.03
64876;BME280;51369;49.862;9.908;2023-05-23T06:46:52;98219.69;;;19.33;60.69
64876;BME280;51369;49.862;9.908;2023-05-23T06:49:22;98229.03;;;19.31;59.60
64876;BME280;51369;49.862;9.908;2023-05-23T06:51:48;98230.88;;;19.30;59.16
64876;BME280;51369;49.862;9.908;2023-05-23T06:54:14;98228.28;;;19.29;59.21
64876;BME280;51369;49.862;9.908;2023-05-23T06:56:39;98240.34;;;19.26;59.22
64876;BME280;51369;49.862;9.908;2023-05-23T06:59:05;98235.88;;;19.25;58.73
64876;BME280;51369;49.862;9.908;2023-05-23T07:01:30;98248.81;;;19.23;58.89
64876;BME280;51369;49.862;9.908;2023-05-23T07:03:55;98250.78;;;19.21;58.97
64876;BME280;51369;49.862;9.908;2023-05-23T07:06:22;98265.72;;;19.17;57.89
64876;BME280;51369;49.862;9.908;2023-05-23T07:08:49;98254.25;;;19.12;59.48
64876;BME280;51369;49.862;9.908;2023-05-23T07:11:14;98260.25;;;19.06;58.51
64876;BME280;51369;49.862;9.908;2023-05-23T07:13:48;98263.22;;;19.03;58.86
64876;BME280;51369;49.862;9.908;2023-05-23T07:16:20;98262.47;;;19.01;58.84
64876;BME280;51369;49.862;9.908;2023-05-23T07:18:56;98266.31;;;18.98;58.28
64876;BME280;51369;49.862;9.908;2023-05-23T07:21:21;98264.69;;;18.96;58.26
64876;BME280;51369;49.862;9.908;2023-05-23T07:23:47;98266.69;;;18.94;58.43
64876;BME280;51369;49.862;9.908;2023-05-23T07:26:13;98271.16;;;18.95;59.07
64876;BME280;51369;49.862;9.908;2023-05-23T07:28:44;98265.81;;;18.93;59.08
64876;BME280;51369;49.862;9.908;2023-05-23T07:31:10;98265.94;;;18.92;59.15
64876;BME280;51369;49.862;9.908;2023-05-23T07:33:37;98264.19;;;18.91;59.65
64876;BME280;51369;49.862;9.908;2023-05-23T07:36:03;98264.06;;;18.92;59.05
64876;BME280;51369;49.862;9.908;2023-05-23T07:38:29;98267.69;;;18.93;57.70
64876;BME280;51369;49.862;9.908;2023-05-23T07:40:54;98272.16;;;18.94;58.29
64876;BME280;51369;49.862;9.908;2023-05-23T07:43:20;98274.13;;;18.92;57.04
64876;BME280;51369;49.862;9.908;2023-05-23T07:45:45;98282.34;;;18.92;56.15
64876;BME280;51369;49.862;9.908;2023-05-23T07:48:10;98282.47;;;18.90;58.12
64876;BME280;51369;49.862;9.908;2023-05-23T07:50:39;98282.59;;;18.89;58.73
64876;BME280;51369;49.862;9.908;2023-05-23T07:53:05;98274.25;;;18.90;59.37
64876;BME280;51369;49.862;9.908;2023-05-23T07:55:32;98275.25;;;18.89;58.87
64876;BME280;51369;49.862;9.908;2023-05-23T07:57:57;98280.72;;;18.89;58.06
64876;BME280;51369;49.862;9.908;2023-05-23T08:00:25;98280.84;;;18.88;57.92
64876;BME280;51369;49.862;9.908;2023-05-23T08:02:55;98282.94;;;18.84;57.89
64876;BME280;51369;49.862;9.908;2023-05-23T08:05:27;98281.19;;;18.83;59.29
64876;BME280;51369;49.862;9.908;2023-05-23T08:07:55;98284.06;;;18.81;59.33
64876;BME280;51369;49.862;9.908;2023-05-23T08:10:20;98274.09;;;18.80;59.27
64876;BME280;51369;49.862;9.908;2023-05-23T08:12:46;98282.31;;;18.80;59.64
64876;BME280;51369;49.862;9.908;2023-05-23T08:15:15;98287.91;;;18.79;60.62
64876;BME280;51369;49.862;9.908;2023-05-23T08:17:46;98292.25;;;18.81;59.93
64876;BME280;51369;49.862;9.908;2023-05-23T08:20:11;98294.13;;;18.81;58.34
64876;BME280;51369;49.862;9.908;2023-05-23T08:22:37;98284.81;;;18.83;59.14
64876;BME280;51369;49.862;9.908;2023-05-23T08:25:04;98279.84;;;18.89;59.95
64876;BME280;51369;49.862;9.908;2023-05-23T08:27:32;98282.22;;;18.93;59.38
64876;BME280;51369;49.862;9.908;2023-05-23T08:30:05;98276.03;;;19.02;59.38
64876;BME280;51369;49.862;9.908;2023-05-23T08:32:32;98277.78;;;19.14;59.64
64876;BME280;51369;49.862;9.908;2023-05-23T08:34:59;98279.66;;;19.25;59.29
64876;BME280;51369;49.862;9.908;2023-05-23T08:37:24;98279.69;;;19.36;59.17
64876;BME280;51369;49.862;9.908;2023-05-23T08:39:50;98277.81;;;19.48;58.11
64876;BME280;51369;49.862;9.908;2023-05-23T08:42:35;98280.84;;;19.67;57.90
64876;BME280;51369;49.862;9.908;2023-05-23T08:45:02;98278.72;;;19.82;57.19
64876;BME280;51369;49.862;9.908;2023-05-23T08:47:28;98285.94;;;19.94;57.46
64876;BME280;51369;49.862;9.908;2023-05-23T08:50:00;98278.06;;;20.12;57.77
64876;BME280;51369;49.862;9.908;2023-05-23T08:52:28;98277.06;;;20.24;58.03
64876;BME280;51369;49.862;9.908;2023-05-23T08:54:59;98282.50;;;20.35;56.37
64876;BME280;51369;49.862;9.908;2023-05-23T08:57:24;98282.00;;;20.53;56.51
64876;BME280;51369;49.862;9.908;2023-05-23T08:59:56;98289.81;;;20.57;56.66
64876;BME280;51369;49.862;9.908;2023-05-23T09:02:23;98285.44;;;20.66;57.04
64876;BME280;51369;49.862;9.908;2023-05-23T09:04:52;98292.88;;;20.75;55.63
64876;BME280;51369;49.862;9.908;2023-05-23T09:07:21;98293.53;;;20.88;55.11
64876;BME280;51369;49.862;9.908;2023-05-23T09:09:48;98301.09;;;20.96;54.64
64876;BME280;51369;49.862;9.908;2023-05-23T09:12:15;98295.63;;;20.96;54.79
64876;BME280;51369;49.862;9.908;2023-05-23T09:14:42;98291.75;;;20.98;54.22
64876;BME280;51369;49.862;9.908;2023-05-23T09:17:09;98301.84;;;20.98;53.83
64876;BME280;51369;49.862;9.908;2023-05-23T09:19:40;98299.97;;;20.98;54.02
64876;BME280;51369;49.862;9.908;2023-05-23T09:22:22;98293.00;;;20.94;53.94
64876;BME280;51369;49.862;9.908;2023-05-23T09:24:56;98305.25;;;20.90;53.99
64876;BME280;51369;49.862;9.908;2023-05-23T09:27:22;98304.03;;;20.83;54.33
64876;BME280;51369;49.862;9.908;2023-05-23T09:29:49;98309.94;;;20.78;53.91
64876;BME280;51369;49.862;9.908;2023-05-23T09:32:17;98311.22;;;20.74;54.58
64876;BME280;51369;49.862;9.908;2023-05-23T09:34:58;98313.22;;;20.72;55.62
64876;BME280;51369;49.862;9.908;2023-05-23T09:37:38;98311.47;;;20.71;54.83
64876;BME280;51369;49.862;9.908;2023-05-23T09:40:14;98318.22;;;20.67;54.39
64876;BME280;51369;49.862;9.908;2023-05-23T09:42:46;98318.97;;;20.69;54.54
64876;BME280;51369;49.862;9.908;2023-05-23T09:45:13;98319.72;;;20.71;54.21
64876;BME280;51369;49.862;9.908;2023-05-23T09:47:38;98321.94;;;20.77;53.74
64876;BME280;51369;49.862;9.908;2023-05-23T09:50:04;98320.44;;;20.73;54.42
64876;BME280;51369;49.862;9.908;2023-05-23T09:52:36;98317.84;;;20.72;54.61
64876;BME280;51369;49.862;9.908;2023-05-23T09:55:02;98323.84;;;20.66;54.88
64876;BME280;51369;49.862;9.908;2023-05-23T09:57:28;98320.34;;;20.64;54.83
64876;BME280;51369;49.862;9.908;2023-05-23T09:59:57;98331.72;;;20.59;56.07
64876;BME280;51369;49.862;9.908;2023-05-23T10:05:05;98332.50;;;20.50;55.08
64876;BME280;51369;49.862;9.908;2023-05-23T10:07:32;98335.63;;;20.45;55.31
64876;BME280;51369;49.862;9.908;2023-05-23T10:10:02;98324.16;;;20.40;55.81
64876;BME280;51369;49.862;9.908;2023-05-23T10:15:02;98327.78;;;20.41;55.67
64876;BME280;51369;49.862;9.908;2023-05-23T10:20:09;98335.25;;;20.39;56.19
64876;BME280;51369;49.862;9.908;2023-05-23T10:22:37;98337.00;;;20.40;55.62
64876;BME280;51369;49.862;9.908;2023-05-23T10:25:04;98335.25;;;20.39;55.90
64876;BME280;51369;49.862;9.908;2023-05-23T10:27:31;98329.13;;;20.35;55.62
64876;BME280;51369;49.862;9.908;2023-05-23T10:29:58;98339.34;;;20.33;56.37
64876;BME280;51369;49.862;9.908;2023-05-23T10:32:25;98336.72;;;20.32;55.47
64876;BME280;51369;49.862;9.908;2023-05-23T10:38:06;98343.72;;;20.25;56.47
64876;BME280;51369;49.862;9.908;2023-05-23T10:40:56;98342.22;;;20.21;56.69
64876;BME280;51369;49.862;9.908;2023-05-23T10:46:02;98346.97;;;20.19;56.92
64876;BME280;51369;49.862;9.908;2023-05-23T10:51:06;98338.75;;;20.19;56.74
64876;BME280;51369;49.862;9.908;2023-05-23T10:53:43;98348.59;;;20.21;58.00
64876;BME280;51369;49.862;9.908;2023-05-23T10:56:10;98346.84;;;20.20;57.27
64876;BME280;51369;49.862;9.908;2023-05-23T10:58:37;98348.84;;;20.18;56.47
64876;BME280;51369;49.862;9.908;2023-05-23T11:01:12;98349.97;;;20.15;56.70
64876;BME280;51369;49.862;9.908;2023-05-23T11:09:01;98349.06;;;20.26;56.99
64876;BME280;51369;49.862;9.908;2023-05-23T11:17:16;98355.53;;;20.59;56.52
64876;BME280;51369;49.862;9.908;2023-05-23T11:20:01;98349.66;;;20.63;56.50
64876;BME280;51369;49.862;9.908;2023-05-23T11:22:30;98354.75;;;20.68;56.39
64876;BME280;51369;49.862;9.908;2023-05-23T11:24:57;98355.63;;;20.68;56.56
64876;BME280;51369;49.862;9.908;2023-05-23T11:27:32;98361.13;;;20.68;56.74
64876;BME280;51369;49.862;9.908;2023-05-23T11:30:15;98356.03;;;20.64;56.34
64876;BME280;51369;49.862;9.908;2023-05-23T11:32:51;98359.75;;;20.63;56.40
64876;BME280;51369;49.862;9.908;2023-05-23T11:35:17;98352.53;;;20.62;56.68
64876;BME280;51369;49.862;9.908;2023-05-23T11:37:43;98356.28;;;20.61;56.44
64876;BME280;51369;49.862;9.908;2023-05-23T11:42:53;98360.16;;;20.58;57.21
64876;BME280;51369;49.862;9.908;2023-05-23T11:45:19;98353.91;;;20.56;56.15
64876;BME280;51369;49.862;9.908;2023-05-23T11:47:45;98361.41;;;20.54;56.37
64876;BME280;51369;49.862;9.908;2023-05-23T11:50:10;98359.91;;;20.50;56.11
64876;BME280;51369;49.862;9.908;2023-05-23T11:52:36;98361.03;;;20.48;55.75
64876;BME280;51369;49.862;9.908;2023-05-23T11:55:01;98364.03;;;20.44;56.80
64876;BME280;51369;49.862;9.908;2023-05-23T11:57:27;98362.56;;;20.40;56.97
64876;BME280;51369;49.862;9.908;2023-05-23T11:59:53;98369.91;;;20.40;56.01
64876;BME280;51369;49.862;9.908;2023-05-23T12:02:20;98373.66;;;20.39;55.93
64876;BME280;51369;49.862;9.908;2023-05-23T12:04:47;98366.50;;;20.36;56.50
64876;BME280;51369;49.862;9.908;2023-05-23T12:07:13;98370.25;;;20.35;56.30
64876;BME280;51369;49.862;9.908;2023-05-23T12:09:45;98366.38;;;20.38;56.47
64876;BME280;51369;49.862;9.908;2023-05-23T12:12:12;98372.78;;;20.38;57.35
64876;BME280;51369;49.862;9.908;2023-05-23T12:14:37;98374.75;;;20.36;56.44
64876;BME280;51369;49.862;9.908;2023-05-23T12:17:10;98369.50;;;20.33;56.00
64876;BME280;51369;49.862;9.908;2023-05-23T12:19:37;98372.63;;;20.29;56.49
64876;BME280;51369;49.862;9.908;2023-05-23T12:22:06;98374.75;;;20.25;56.31
64876;BME280;51369;49.862;9.908;2023-05-23T12:24:32;98376.00;;;20.21;56.45
64876;BME280;51369;49.862;9.908;2023-05-23T12:27:00;98381.00;;;20.16;56.85
64876;BME280;51369;49.862;9.908;2023-05-23T12:29:31;98380.50;;;20.11;57.07
64876;BME280;51369;49.862;9.908;2023-05-23T12:32:02;98380.13;;;20.04;57.02
64876;BME280;51369;49.862;9.908;2023-05-23T12:34:28;98383.09;;;20.01;57.02
64876;BME280;51369;49.862;9.908;2023-05-23T12:36:57;98379.88;;;20.07;56.63
64876;BME280;51369;49.862;9.908;2023-05-23T12:39:29;98383.34;;;20.09;58.04
64876;BME280;51369;49.862;9.908;2023-05-23T12:42:05;98382.09;;;20.13;58.26
64876;BME280;51369;49.862;9.908;2023-05-23T12:44:31;98386.47;;;20.05;58.86
64876;BME280;51369;49.862;9.908;2023-05-23T12:46:56;98382.84;;;20.04;58.89
64876;BME280;51369;49.862;9.908;2023-05-23T12:49:22;98385.47;;;20.06;57.80
64876;BME280;51369;49.862;9.908;2023-05-23T12:51:47;98389.09;;;20.06;57.62
64876;BME280;51369;49.862;9.908;2023-05-23T12:54:12;98388.97;;;20.08;57.87
64876;BME280;51369;49.862;9.908;2023-05-23T12:56:38;98381.59;;;20.08;57.14
64876;BME280;51369;49.862;9.908;2023-05-23T12:59:03;98389.09;;;20.06;57.73
64876;BME280;51369;49.862;9.908;2023-05-23T13:01:29;98387.72;;;20.01;57.09
64876;BME280;51369;49.862;9.908;2023-05-23T13:03:55;98392.19;;;20.02;56.93
64876;BME280;51369;49.862;9.908;2023-05-23T13:06:20;98395.69;;;20.04;57.15
64876;BME280;51369;49.862;9.908;2023-05-23T13:08:46;98397.03;;;19.87;58.66
64876;BME280;51369;49.862;9.908;2023-05-23T13:11:13;98388.94;;;19.74;58.77
64876;BME280;51369;49.862;9.908;2023-05-23T13:13:38;98389.53;;;19.67;59.07
64876;BME280;51369;49.862;9.908;2023-05-23T13:16:04;98392.88;;;19.59;58.71
64876;BME280;51369;49.862;9.908;2023-05-23T13:18:29;98392.25;;;19.56;59.69
64876;BME280;51369;49.862;9.908;2023-05-23T13:20:55;98397.97;;;19.53;58.84
64876;BME280;51369;49.862;9.908;2023-05-23T13:23:20;98398.97;;;19.52;58.94
64876;BME280;51369;49.862;9.908;2023-05-23T13:25:46;98389.97;;;19.49;58.88
64876;BME280;51369;49.862;9.908;2023-05-23T13:28:11;98390.84;;;19.50;59.18
64876;BME280;51369;49.862;9.908;2023-05-23T13:30:36;98381.53;;;19.53;58.30
64876;BME280;51369;49.862;9.908;2023-05-23T13:33:02;98384.91;;;19.56;58.31
64876;BME280;51369;49.862;9.908;2023-05-23T13:35:28;98369.97;;;19.60;59.04
64876;BME280;51369;49.862;9.908;2023-05-23T13:37:53;98374.09;;;19.66;57.53
64876;BME280;51369;49.862;9.908;2023-05-23T13:40:20;98376.34;;;19.72;56.85